PWSweather.com
Personal Weather Stations
Station Observations
IPORTUGA89
BarosaPT

BarosaPT

Lat: 39.754028, Lon: -8.843

Elevation: 98

Station Type: Davis Vp2

High Low Average
Temperature 85.1°F29.5°C 58.5°F14.7°C 66.8°F19.3°C
Dew Point 66.0°F18.9°C 57.0°F13.9°C 60.5°F15.8°C
Winds 8.1 mph 13.0 kmh Calm Calm 3.0 mph WNW4.8 kmh WNW
Wind Gusts 14.1 mph22.7 kmh -- 6.0 mph9.7 kmh
Humidity 95% 47% 83%
Pressure 30.19 in1022.4 mb 30.10 in1019.3 mb -
Precipitation 0.00 in0.0 mm - -
Hour Temp Dew Point Humidity Winds Wind Gusts Pressure Precip Precip Rate Daily Precip Total
12:03 AM 60.3°F15.7°C 58.3°F14.6°C 93% 0.9 mph NW1.4 kmh NW 2.9 mph4.7 kmh 30.19 in1022.4 mb 0.00 in0.0 mm 0.00 in0.0 mm 0.00 in0.0 mm
12:13 AM 60.1°F15.6°C 58.1°F14.5°C 93% Calm Calm -- 30.19 in1022.4 mb 0.00 in0.0 mm 0.00 in0.0 mm 0.00 in0.0 mm
12:24 AM 60.1°F15.6°C 58.1°F14.5°C 93% Calm Calm -- 30.19 in1022.4 mb 0.00 in0.0 mm 0.00 in0.0 mm 0.00 in0.0 mm
12:34 AM 60.1°F15.6°C 58.1°F14.5°C 93% Calm Calm 2.9 mph4.7 kmh 30.19 in1022.4 mb 0.00 in0.0 mm 0.00 in0.0 mm 0.00 in0.0 mm
12:44 AM 60.1°F15.6°C 58.3°F14.6°C 94% 2.0 mph NW3.2 kmh NW 2.9 mph4.7 kmh 30.18 in1022.0 mb 0.00 in0.0 mm 0.00 in0.0 mm 0.00 in0.0 mm
12:54 AM 60.1°F15.6°C 58.3°F14.6°C 94% 2.0 mph WNW3.2 kmh WNW 2.9 mph4.7 kmh 30.18 in1022.0 mb 0.00 in0.0 mm 0.00 in0.0 mm 0.00 in0.0 mm
01:04 AM 59.7°F15.4°C 57.9°F14.4°C 94% 2.0 mph NW3.2 kmh NW 4.0 mph6.4 kmh 30.18 in1022.0 mb 0.00 in0.0 mm 0.00 in0.0 mm 0.00 in0.0 mm
01:14 AM 59.7°F15.4°C 57.9°F14.4°C 94% 0.9 mph NW1.4 kmh NW 2.9 mph4.7 kmh 30.17 in1021.7 mb 0.00 in0.0 mm 0.00 in0.0 mm 0.00 in0.0 mm
01:24 AM 59.5°F15.3°C 57.7°F14.3°C 94% Calm Calm 2.0 mph3.2 kmh 30.17 in1021.7 mb 0.00 in0.0 mm 0.00 in0.0 mm 0.00 in0.0 mm
01:34 AM 59.5°F15.3°C 57.7°F14.3°C 94% 0.9 mph NNW1.4 kmh NNW 2.9 mph4.7 kmh 30.17 in1021.7 mb 0.00 in0.0 mm 0.00 in0.0 mm 0.00 in0.0 mm
01:44 AM 59.7°F15.4°C 57.9°F14.4°C 94% 0.9 mph N1.4 kmh N 2.9 mph4.7 kmh 30.16 in1021.3 mb 0.00 in0.0 mm 0.00 in0.0 mm 0.00 in0.0 mm
01:54 AM 59.5°F15.3°C 57.7°F14.3°C 94% Calm Calm -- 30.16 in1021.3 mb 0.00 in0.0 mm 0.00 in0.0 mm 0.00 in0.0 mm
02:04 AM 59.7°F15.4°C 57.9°F14.4°C 94% Calm Calm -- 30.16 in1021.3 mb 0.00 in0.0 mm 0.00 in0.0 mm 0.00 in0.0 mm
02:15 AM 59.7°F15.4°C 57.9°F14.4°C 94% Calm Calm 2.0 mph3.2 kmh 30.16 in1021.3 mb 0.00 in0.0 mm 0.00 in0.0 mm 0.00 in0.0 mm
02:25 AM 59.7°F15.4°C 57.9°F14.4°C 94% 0.9 mph N1.4 kmh N 4.0 mph6.4 kmh 30.16 in1021.3 mb 0.00 in0.0 mm 0.00 in0.0 mm 0.00 in0.0 mm
02:35 AM 59.7°F15.4°C 57.9°F14.4°C 94% 2.0 mph N3.2 kmh N 4.0 mph6.4 kmh 30.16 in1021.3 mb 0.00 in0.0 mm 0.00 in0.0 mm 0.00 in0.0 mm
02:45 AM 59.5°F15.3°C 57.7°F14.3°C 94% 0.9 mph N1.4 kmh N 2.0 mph3.2 kmh 30.16 in1021.3 mb 0.00 in0.0 mm 0.00 in0.0 mm 0.00 in0.0 mm
02:55 AM 59.5°F15.3°C 57.7°F14.3°C 94% Calm Calm 2.0 mph3.2 kmh 30.16 in1021.3 mb 0.00 in0.0 mm 0.00 in0.0 mm 0.00 in0.0 mm
03:05 AM 59.5°F15.3°C 57.7°F14.3°C 94% Calm Calm 0.9 mph1.4 kmh 30.16 in1021.3 mb 0.00 in0.0 mm 0.00 in0.0 mm 0.00 in0.0 mm
03:15 AM 59.5°F15.3°C 57.7°F14.3°C 94% 0.9 mph N1.4 kmh N 2.0 mph3.2 kmh 30.16 in1021.3 mb 0.00 in0.0 mm 0.00 in0.0 mm 0.00 in0.0 mm
03:25 AM 59.5°F15.3°C 57.7°F14.3°C 94% Calm Calm 0.9 mph1.4 kmh 30.16 in1021.3 mb 0.00 in0.0 mm 0.00 in0.0 mm 0.00 in0.0 mm
03:35 AM 59.5°F15.3°C 57.7°F14.3°C 94% 0.9 mph NW1.4 kmh NW 4.0 mph6.4 kmh 30.16 in1021.3 mb 0.00 in0.0 mm 0.00 in0.0 mm 0.00 in0.0 mm
03:45 AM 59.4°F15.2°C 57.6°F14.2°C 94% 2.0 mph NW3.2 kmh NW 4.0 mph6.4 kmh 30.15 in1021.0 mb 0.00 in0.0 mm 0.00 in0.0 mm 0.00 in0.0 mm
03:55 AM 59.2°F15.1°C 57.4°F14.1°C 94% 0.9 mph NW1.4 kmh NW 2.0 mph3.2 kmh 30.15 in1021.0 mb 0.00 in0.0 mm 0.00 in0.0 mm 0.00 in0.0 mm
04:06 AM 59.2°F15.1°C 57.4°F14.1°C 94% 0.9 mph NW1.4 kmh NW 2.0 mph3.2 kmh 30.15 in1021.0 mb 0.00 in0.0 mm 0.00 in0.0 mm 0.00 in0.0 mm
04:16 AM 59.2°F15.1°C 57.4°F14.1°C 94% Calm Calm 0.9 mph1.4 kmh 30.15 in1021.0 mb 0.00 in0.0 mm 0.00 in0.0 mm 0.00 in0.0 mm
04:26 AM 59.0°F15.0°C 57.2°F14.0°C 94% 0.9 mph NW1.4 kmh NW 2.0 mph3.2 kmh 30.14 in1020.7 mb 0.00 in0.0 mm 0.00 in0.0 mm 0.00 in0.0 mm
04:36 AM 58.8°F14.9°C 57.0°F13.9°C 94% Calm Calm 0.9 mph1.4 kmh 30.15 in1021.0 mb 0.00 in0.0 mm 0.00 in0.0 mm 0.00 in0.0 mm
04:46 AM 59.0°F15.0°C 57.2°F14.0°C 94% 0.9 mph NW1.4 kmh NW 2.0 mph3.2 kmh 30.15 in1021.0 mb 0.00 in0.0 mm 0.00 in0.0 mm 0.00 in0.0 mm
04:56 AM 59.0°F15.0°C 57.2°F14.0°C 94% 0.9 mph NW1.4 kmh NW 2.9 mph4.7 kmh 30.15 in1021.0 mb 0.00 in0.0 mm 0.00 in0.0 mm 0.00 in0.0 mm
05:06 AM 59.0°F15.0°C 57.2°F14.0°C 94% 0.9 mph NW1.4 kmh NW 2.0 mph3.2 kmh 30.15 in1021.0 mb 0.00 in0.0 mm 0.00 in0.0 mm 0.00 in0.0 mm
05:16 AM 58.8°F14.9°C 57.4°F14.1°C 95% 0.9 mph NNW1.4 kmh NNW 2.9 mph4.7 kmh 30.14 in1020.7 mb 0.00 in0.0 mm 0.00 in0.0 mm 0.00 in0.0 mm
05:26 AM 59.2°F15.1°C 57.7°F14.3°C 95% 2.0 mph NNW3.2 kmh NNW 2.9 mph4.7 kmh 30.15 in1021.0 mb 0.00 in0.0 mm 0.00 in0.0 mm 0.00 in0.0 mm
05:36 AM 58.8°F14.9°C 57.4°F14.1°C 95% 0.9 mph NNW1.4 kmh NNW 2.9 mph4.7 kmh 30.15 in1021.0 mb 0.00 in0.0 mm 0.00 in0.0 mm 0.00 in0.0 mm
05:46 AM 58.8°F14.9°C 57.4°F14.1°C 95% 0.9 mph NNW1.4 kmh NNW 2.9 mph4.7 kmh 30.15 in1021.0 mb 0.00 in0.0 mm 0.00 in0.0 mm 0.00 in0.0 mm
05:56 AM 58.8°F14.9°C 57.4°F14.1°C 95% Calm Calm 2.0 mph3.2 kmh 30.15 in1021.0 mb 0.00 in0.0 mm 0.00 in0.0 mm 0.00 in0.0 mm
06:07 AM 58.8°F14.9°C 57.4°F14.1°C 95% Calm Calm -- 30.16 in1021.3 mb 0.00 in0.0 mm 0.00 in0.0 mm 0.00 in0.0 mm
06:17 AM 59.0°F15.0°C 57.6°F14.2°C 95% Calm Calm 2.0 mph3.2 kmh 30.16 in1021.3 mb 0.00 in0.0 mm 0.00 in0.0 mm 0.00 in0.0 mm
06:27 AM 59.0°F15.0°C 57.6°F14.2°C 95% 2.0 mph WNW3.2 kmh WNW 4.0 mph6.4 kmh 30.16 in1021.3 mb 0.00 in0.0 mm 0.00 in0.0 mm 0.00 in0.0 mm
06:37 AM 58.6°F14.8°C 57.2°F14.0°C 95% 2.0 mph WNW3.2 kmh WNW 4.0 mph6.4 kmh 30.16 in1021.3 mb 0.00 in0.0 mm 0.00 in0.0 mm 0.00 in0.0 mm
06:47 AM 58.5°F14.7°C 57.0°F13.9°C 95% 2.9 mph WSW4.7 kmh WSW 4.0 mph6.4 kmh 30.16 in1021.3 mb 0.00 in0.0 mm 0.00 in0.0 mm 0.00 in0.0 mm
06:57 AM 58.5°F14.7°C 57.0°F13.9°C 95% 0.9 mph WSW1.4 kmh WSW 2.9 mph4.7 kmh 30.16 in1021.3 mb 0.00 in0.0 mm 0.00 in0.0 mm 0.00 in0.0 mm
07:07 AM 58.5°F14.7°C 57.0°F13.9°C 95% 0.9 mph W1.4 kmh W 2.0 mph3.2 kmh 30.16 in1021.3 mb 0.00 in0.0 mm 0.00 in0.0 mm 0.00 in0.0 mm
07:17 AM 58.6°F14.8°C 57.2°F14.0°C 95% Calm Calm 2.0 mph3.2 kmh 30.16 in1021.3 mb 0.00 in0.0 mm 0.00 in0.0 mm 0.00 in0.0 mm
07:27 AM 58.8°F14.9°C 57.4°F14.1°C 95% 0.9 mph W1.4 kmh W 2.9 mph4.7 kmh 30.16 in1021.3 mb 0.00 in0.0 mm 0.00 in0.0 mm 0.00 in0.0 mm
07:37 AM 58.8°F14.9°C 57.4°F14.1°C 95% 0.9 mph W1.4 kmh W 2.9 mph4.7 kmh 30.17 in1021.7 mb 0.00 in0.0 mm 0.00 in0.0 mm 0.00 in0.0 mm
07:47 AM 59.0°F15.0°C 57.6°F14.2°C 95% Calm Calm 2.0 mph3.2 kmh 30.16 in1021.3 mb 0.00 in0.0 mm 0.00 in0.0 mm 0.00 in0.0 mm
07:57 AM 59.4°F15.2°C 57.9°F14.4°C 95% 0.9 mph WSW1.4 kmh WSW 2.0 mph3.2 kmh 30.17 in1021.7 mb 0.00 in0.0 mm 0.00 in0.0 mm 0.00 in0.0 mm
08:07 AM 59.5°F15.3°C 58.1°F14.5°C 95% Calm Calm 0.9 mph1.4 kmh 30.17 in1021.7 mb 0.00 in0.0 mm 0.00 in0.0 mm 0.00 in0.0 mm
08:18 AM 59.7°F15.4°C 58.3°F14.6°C 95% Calm Calm 2.0 mph3.2 kmh 30.17 in1021.7 mb 0.00 in0.0 mm 0.00 in0.0 mm 0.00 in0.0 mm
08:28 AM 60.1°F15.6°C 58.6°F14.8°C 95% 0.9 mph WSW1.4 kmh WSW 2.0 mph3.2 kmh 30.17 in1021.7 mb 0.00 in0.0 mm 0.00 in0.0 mm 0.00 in0.0 mm
08:38 AM 60.3°F15.7°C 58.8°F14.9°C 95% 0.9 mph W1.4 kmh W 2.9 mph4.7 kmh 30.18 in1022.0 mb 0.00 in0.0 mm 0.00 in0.0 mm 0.00 in0.0 mm
08:48 AM 60.6°F15.9°C 59.2°F15.1°C 95% 0.9 mph SW1.4 kmh SW 2.9 mph4.7 kmh 30.17 in1021.7 mb 0.00 in0.0 mm 0.00 in0.0 mm 0.00 in0.0 mm
08:58 AM 61.0°F16.1°C 59.5°F15.3°C 95% 2.0 mph ESE3.2 kmh ESE 2.9 mph4.7 kmh 30.18 in1022.0 mb 0.00 in0.0 mm 0.00 in0.0 mm 0.00 in0.0 mm
09:08 AM 61.5°F16.4°C 60.1°F15.6°C 95% 0.9 mph E1.4 kmh E 2.9 mph4.7 kmh 30.18 in1022.0 mb 0.00 in0.0 mm 0.00 in0.0 mm 0.00 in0.0 mm
09:18 AM 62.4°F16.9°C 61.0°F16.1°C 95% 0.9 mph NW1.4 kmh NW 2.9 mph4.7 kmh 30.18 in1022.0 mb 0.00 in0.0 mm 0.00 in0.0 mm 0.00 in0.0 mm
09:28 AM 63.3°F17.4°C 61.9°F16.6°C 95% 0.9 mph N1.4 kmh N 4.0 mph6.4 kmh 30.18 in1022.0 mb 0.00 in0.0 mm 0.00 in0.0 mm 0.00 in0.0 mm
09:38 AM 65.5°F18.6°C 63.7°F17.6°C 94% 2.9 mph NW4.7 kmh NW 8.1 mph13.0 kmh 30.18 in1022.0 mb 0.00 in0.0 mm 0.00 in0.0 mm 0.00 in0.0 mm
09:48 AM 66.6°F19.2°C 63.9°F17.7°C 91% 4.0 mph NW6.4 kmh NW 8.1 mph13.0 kmh 30.18 in1022.0 mb 0.00 in0.0 mm 0.00 in0.0 mm 0.00 in0.0 mm
09:58 AM 67.8°F19.9°C 64.2°F17.9°C 88% 4.0 mph WNW6.4 kmh WNW 8.1 mph13.0 kmh 30.18 in1022.0 mb 0.00 in0.0 mm 0.00 in0.0 mm 0.00 in0.0 mm
10:08 AM 68.9°F20.5°C 64.2°F17.9°C 85% 2.9 mph NW4.7 kmh NW 8.1 mph13.0 kmh 30.18 in1022.0 mb 0.00 in0.0 mm 0.00 in0.0 mm 0.00 in0.0 mm
10:18 AM 69.4°F20.8°C 63.7°F17.6°C 82% 2.9 mph N4.7 kmh N 8.1 mph13.0 kmh 30.18 in1022.0 mb 0.00 in0.0 mm 0.00 in0.0 mm 0.00 in0.0 mm
10:28 AM 70.3°F21.3°C 64.2°F17.9°C 81% 4.0 mph N6.4 kmh N 6.9 mph11.1 kmh 30.18 in1022.0 mb 0.00 in0.0 mm 0.00 in0.0 mm 0.00 in0.0 mm
10:38 AM 71.4°F21.9°C 64.2°F17.9°C 78% 4.0 mph N6.4 kmh N 6.9 mph11.1 kmh 30.17 in1021.7 mb 0.00 in0.0 mm 0.00 in0.0 mm 0.00 in0.0 mm
10:48 AM 72.0°F22.2°C 65.1°F18.4°C 79% 2.9 mph N4.7 kmh N 6.9 mph11.1 kmh 30.17 in1021.7 mb 0.00 in0.0 mm 0.00 in0.0 mm 0.00 in0.0 mm
10:58 AM 73.6°F23.1°C 65.5°F18.6°C 76% 4.0 mph WSW6.4 kmh WSW 8.1 mph13.0 kmh 30.17 in1021.7 mb 0.00 in0.0 mm 0.00 in0.0 mm 0.00 in0.0 mm
11:08 AM 74.5°F23.6°C 65.3°F18.5°C 73% 2.9 mph NW4.7 kmh NW 6.0 mph9.7 kmh 30.17 in1021.7 mb 0.00 in0.0 mm 0.00 in0.0 mm 0.00 in0.0 mm
11:18 AM 75.2°F24.0°C 66.0°F18.9°C 73% 2.0 mph NE3.2 kmh NE 6.9 mph11.1 kmh 30.17 in1021.7 mb 0.00 in0.0 mm 0.00 in0.0 mm 0.00 in0.0 mm
11:28 AM 75.9°F24.4°C 65.8°F18.8°C 71% 2.9 mph NW4.7 kmh NW 8.1 mph13.0 kmh 30.16 in1021.3 mb 0.00 in0.0 mm 0.00 in0.0 mm 0.00 in0.0 mm
11:38 AM 77.2°F25.1°C 65.8°F18.8°C 68% 4.0 mph NW6.4 kmh NW 8.9 mph14.3 kmh 30.16 in1021.3 mb 0.00 in0.0 mm 0.00 in0.0 mm 0.00 in0.0 mm
11:48 AM 78.1°F25.6°C 65.3°F18.5°C 65% 4.0 mph NNW6.4 kmh NNW 8.9 mph14.3 kmh 30.16 in1021.3 mb 0.00 in0.0 mm 0.00 in0.0 mm 0.00 in0.0 mm
11:58 AM 79.2°F26.2°C 65.5°F18.6°C 63% 2.9 mph N4.7 kmh N 8.1 mph13.0 kmh 30.15 in1021.0 mb 0.00 in0.0 mm 0.00 in0.0 mm 0.00 in0.0 mm
12:08 PM 80.1°F26.7°C 65.8°F18.8°C 62% 4.0 mph NNW6.4 kmh NNW 8.1 mph13.0 kmh 30.15 in1021.0 mb 0.00 in0.0 mm 0.00 in0.0 mm 0.00 in0.0 mm
12:18 PM 81.3°F27.4°C 65.7°F18.7°C 59% 4.0 mph NW6.4 kmh NW 8.9 mph14.3 kmh 30.15 in1021.0 mb 0.00 in0.0 mm 0.00 in0.0 mm 0.00 in0.0 mm
12:28 PM 81.7°F27.6°C 66.0°F18.9°C 59% 6.0 mph NW9.7 kmh NW 13.0 mph20.9 kmh 30.14 in1020.7 mb 0.00 in0.0 mm 0.00 in0.0 mm 0.00 in0.0 mm
12:38 PM 82.0°F27.8°C 63.1°F17.3°C 53% 4.9 mph NW7.9 kmh NW 10.1 mph16.3 kmh 30.14 in1020.7 mb 0.00 in0.0 mm 0.00 in0.0 mm 0.00 in0.0 mm
12:48 PM 82.2°F27.9°C 63.3°F17.4°C 53% 6.0 mph NW9.7 kmh NW 11.0 mph17.7 kmh 30.14 in1020.7 mb 0.00 in0.0 mm 0.00 in0.0 mm 0.00 in0.0 mm
12:58 PM 82.6°F28.1°C 63.7°F17.6°C 53% 6.0 mph NW9.7 kmh NW 12.1 mph19.5 kmh 30.14 in1020.7 mb 0.00 in0.0 mm 0.00 in0.0 mm 0.00 in0.0 mm
01:08 PM 82.0°F27.8°C 63.7°F17.6°C 54% 6.0 mph N9.7 kmh N 12.1 mph19.5 kmh 30.14 in1020.7 mb 0.00 in0.0 mm 0.00 in0.0 mm 0.00 in0.0 mm
01:18 PM 82.4°F28.0°C 64.0°F17.8°C 54% 6.0 mph NNW9.7 kmh NNW 12.1 mph19.5 kmh 30.14 in1020.7 mb 0.00 in0.0 mm 0.00 in0.0 mm 0.00 in0.0 mm
01:28 PM 82.6°F28.1°C 62.1°F16.7°C 50% 8.1 mph NW13.0 kmh NW 12.1 mph19.5 kmh 30.13 in1020.3 mb 0.00 in0.0 mm 0.00 in0.0 mm 0.00 in0.0 mm
01:38 PM 82.8°F28.2°C 62.8°F17.1°C 51% 6.9 mph NW11.1 kmh NW 11.0 mph17.7 kmh 30.13 in1020.3 mb 0.00 in0.0 mm 0.00 in0.0 mm 0.00 in0.0 mm
01:48 PM 83.7°F28.7°C 63.0°F17.2°C 50% 4.9 mph NW7.9 kmh NW 10.1 mph16.3 kmh 30.12 in1020.0 mb 0.00 in0.0 mm 0.00 in0.0 mm 0.00 in0.0 mm
01:58 PM 84.4°F29.1°C 61.9°F16.6°C 47% 6.0 mph NW9.7 kmh NW 12.1 mph19.5 kmh 30.12 in1020.0 mb 0.00 in0.0 mm 0.00 in0.0 mm 0.00 in0.0 mm
02:08 PM 84.6°F29.2°C 62.1°F16.7°C 47% 6.9 mph NW11.1 kmh NW 12.1 mph19.5 kmh 30.11 in1019.6 mb 0.00 in0.0 mm 0.00 in0.0 mm 0.00 in0.0 mm
02:18 PM 84.6°F29.2°C 62.1°F16.7°C 47% 6.0 mph NW9.7 kmh NW 11.0 mph17.7 kmh 30.11 in1019.6 mb 0.00 in0.0 mm 0.00 in0.0 mm 0.00 in0.0 mm
02:28 PM 84.7°F29.3°C 63.0°F17.2°C 48% 6.0 mph NW9.7 kmh NW 12.1 mph19.5 kmh 30.11 in1019.6 mb 0.00 in0.0 mm 0.00 in0.0 mm 0.00 in0.0 mm
02:39 PM 85.1°F29.5°C 62.6°F17.0°C 47% 6.9 mph W11.1 kmh W 12.1 mph19.5 kmh 30.11 in1019.6 mb 0.00 in0.0 mm 0.00 in0.0 mm 0.00 in0.0 mm
02:49 PM 84.4°F29.1°C 63.7°F17.6°C 50% 6.9 mph NW11.1 kmh NW 12.1 mph19.5 kmh 30.11 in1019.6 mb 0.00 in0.0 mm 0.00 in0.0 mm 0.00 in0.0 mm
02:59 PM 83.1°F28.4°C 63.1°F17.3°C 51% 8.1 mph WNW13.0 kmh WNW 14.1 mph22.7 kmh 30.11 in1019.6 mb 0.00 in0.0 mm 0.00 in0.0 mm 0.00 in0.0 mm
03:09 PM 82.2°F27.9°C 63.3°F17.4°C 53% 8.1 mph NNW13.0 kmh NNW 13.0 mph20.9 kmh 30.11 in1019.6 mb 0.00 in0.0 mm 0.00 in0.0 mm 0.00 in0.0 mm
03:19 PM 82.0°F27.8°C 63.1°F17.3°C 53% 6.9 mph NNW11.1 kmh NNW 13.0 mph20.9 kmh 30.10 in1019.3 mb 0.00 in0.0 mm 0.00 in0.0 mm 0.00 in0.0 mm
03:29 PM 80.8°F27.1°C 63.7°F17.6°C 56% 8.1 mph NNW13.0 kmh NNW 14.1 mph22.7 kmh 30.10 in1019.3 mb 0.00 in0.0 mm 0.00 in0.0 mm 0.00 in0.0 mm
03:39 PM 80.6°F27.0°C 64.0°F17.8°C 57% 6.0 mph WSW9.7 kmh WSW 12.1 mph19.5 kmh 30.10 in1019.3 mb 0.00 in0.0 mm 0.00 in0.0 mm 0.00 in0.0 mm
03:49 PM 79.7°F26.5°C 63.1°F17.3°C 57% 6.0 mph NW9.7 kmh NW 11.0 mph17.7 kmh 30.10 in1019.3 mb 0.00 in0.0 mm 0.00 in0.0 mm 0.00 in0.0 mm
03:59 PM 77.7°F25.4°C 62.8°F17.1°C 60% 8.1 mph NNW13.0 kmh NNW 11.0 mph17.7 kmh 30.10 in1019.3 mb 0.00 in0.0 mm 0.00 in0.0 mm 0.00 in0.0 mm
04:09 PM 77.2°F25.1°C 63.1°F17.3°C 62% 6.9 mph NW11.1 kmh NW 10.1 mph16.3 kmh 30.10 in1019.3 mb 0.00 in0.0 mm 0.00 in0.0 mm 0.00 in0.0 mm
04:19 PM 77.5°F25.3°C 63.5°F17.5°C 62% 4.9 mph N7.9 kmh N 10.1 mph16.3 kmh 30.10 in1019.3 mb 0.00 in0.0 mm 0.00 in0.0 mm 0.00 in0.0 mm
04:29 PM 77.2°F25.1°C 64.0°F17.8°C 64% 8.1 mph NW13.0 kmh NW 13.0 mph20.9 kmh 30.10 in1019.3 mb 0.00 in0.0 mm 0.00 in0.0 mm 0.00 in0.0 mm
04:39 PM 76.3°F24.6°C 63.7°F17.6°C 65% 8.1 mph W13.0 kmh W 12.1 mph19.5 kmh 30.11 in1019.6 mb 0.00 in0.0 mm 0.00 in0.0 mm 0.00 in0.0 mm
04:49 PM 75.7°F24.3°C 63.5°F17.5°C 66% 6.0 mph NW9.7 kmh NW 11.0 mph17.7 kmh 30.11 in1019.6 mb 0.00 in0.0 mm 0.00 in0.0 mm 0.00 in0.0 mm
04:59 PM 75.0°F23.9°C 62.4°F16.9°C 65% 6.9 mph NW11.1 kmh NW 12.1 mph19.5 kmh 30.11 in1019.6 mb 0.00 in0.0 mm 0.00 in0.0 mm 0.00 in0.0 mm
05:09 PM 73.9°F23.3°C 62.2°F16.8°C 67% 4.9 mph NW7.9 kmh NW 10.1 mph16.3 kmh 30.11 in1019.6 mb 0.00 in0.0 mm 0.00 in0.0 mm 0.00 in0.0 mm
05:19 PM 73.6°F23.1°C 62.8°F17.1°C 69% 6.0 mph W9.7 kmh W 10.1 mph16.3 kmh 30.11 in1019.6 mb 0.00 in0.0 mm 0.00 in0.0 mm 0.00 in0.0 mm
05:29 PM 73.2°F22.9°C 63.3°F17.4°C 71% 6.0 mph NW9.7 kmh NW 10.1 mph16.3 kmh 30.11 in1019.6 mb 0.00 in0.0 mm 0.00 in0.0 mm 0.00 in0.0 mm
05:39 PM 72.3°F22.4°C 62.8°F17.1°C 72% 4.9 mph WNW7.9 kmh WNW 10.1 mph16.3 kmh 30.11 in1019.6 mb 0.00 in0.0 mm 0.00 in0.0 mm 0.00 in0.0 mm
05:49 PM 71.2°F21.8°C 62.6°F17.0°C 74% 6.0 mph WNW9.7 kmh WNW 10.1 mph16.3 kmh 30.11 in1019.6 mb 0.00 in0.0 mm 0.00 in0.0 mm 0.00 in0.0 mm
05:59 PM 69.4°F20.8°C 61.9°F16.6°C 77% 4.9 mph NW7.9 kmh NW 8.9 mph14.3 kmh 30.11 in1019.6 mb 0.00 in0.0 mm 0.00 in0.0 mm 0.00 in0.0 mm
06:09 PM 67.8°F19.9°C 61.7°F16.5°C 81% 4.9 mph NW7.9 kmh NW 8.9 mph14.3 kmh 30.11 in1019.6 mb 0.00 in0.0 mm 0.00 in0.0 mm 0.00 in0.0 mm
06:19 PM 66.6°F19.2°C 61.2°F16.2°C 83% 4.9 mph WNW7.9 kmh WNW 8.9 mph14.3 kmh 30.11 in1019.6 mb 0.00 in0.0 mm 0.00 in0.0 mm 0.00 in0.0 mm
06:29 PM 65.8°F18.8°C 61.2°F16.2°C 85% 4.9 mph WNW7.9 kmh WNW 8.9 mph14.3 kmh 30.12 in1020.0 mb 0.00 in0.0 mm 0.00 in0.0 mm 0.00 in0.0 mm
06:39 PM 65.1°F18.4°C 61.2°F16.2°C 87% 2.9 mph NW4.7 kmh NW 8.1 mph13.0 kmh 30.12 in1020.0 mb 0.00 in0.0 mm 0.00 in0.0 mm 0.00 in0.0 mm
06:49 PM 64.8°F18.2°C 61.2°F16.2°C 88% 2.9 mph W4.7 kmh W 8.1 mph13.0 kmh 30.11 in1019.6 mb 0.00 in0.0 mm 0.00 in0.0 mm 0.00 in0.0 mm
06:59 PM 64.2°F17.9°C 61.0°F16.1°C 89% 2.9 mph WSW4.7 kmh WSW 6.0 mph9.7 kmh 30.11 in1019.6 mb 0.00 in0.0 mm 0.00 in0.0 mm 0.00 in0.0 mm
07:09 PM 64.0°F17.8°C 60.8°F16.0°C 89% 2.0 mph W3.2 kmh W 6.0 mph9.7 kmh 30.12 in1020.0 mb 0.00 in0.0 mm 0.00 in0.0 mm 0.00 in0.0 mm
07:19 PM 63.9°F17.7°C 60.8°F16.0°C 90% 2.0 mph WSW3.2 kmh WSW 4.0 mph6.4 kmh 30.12 in1020.0 mb 0.00 in0.0 mm 0.00 in0.0 mm 0.00 in0.0 mm
07:29 PM 63.7°F17.6°C 60.6°F15.9°C 90% 2.0 mph WNW3.2 kmh WNW 6.0 mph9.7 kmh 30.12 in1020.0 mb 0.00 in0.0 mm 0.00 in0.0 mm 0.00 in0.0 mm
07:39 PM 63.5°F17.5°C 60.8°F16.0°C 91% 0.9 mph WNW1.4 kmh WNW 2.9 mph4.7 kmh 30.12 in1020.0 mb 0.00 in0.0 mm 0.00 in0.0 mm 0.00 in0.0 mm
07:49 PM 63.3°F17.4°C 60.6°F15.9°C 91% 0.9 mph W1.4 kmh W 2.9 mph4.7 kmh 30.12 in1020.0 mb 0.00 in0.0 mm 0.00 in0.0 mm 0.00 in0.0 mm
07:59 PM 63.3°F17.4°C 60.6°F15.9°C 91% 2.0 mph NNW3.2 kmh NNW 2.9 mph4.7 kmh 30.12 in1020.0 mb 0.00 in0.0 mm 0.00 in0.0 mm 0.00 in0.0 mm
08:09 PM 63.1°F17.3°C 60.4°F15.8°C 91% 2.9 mph 4.7 kmh 4.9 mph7.9 kmh 30.13 in1020.3 mb 0.00 in0.0 mm 0.00 in0.0 mm 0.00 in0.0 mm
08:20 PM 63.0°F17.2°C 60.3°F15.7°C 91% 0.9 mph 1.4 kmh 2.9 mph4.7 kmh 30.13 in1020.3 mb 0.00 in0.0 mm 0.00 in0.0 mm 0.00 in0.0 mm
08:30 PM 62.4°F16.9°C 59.7°F15.4°C 91% 0.9 mph N1.4 kmh N 2.9 mph4.7 kmh 30.13 in1020.3 mb 0.00 in0.0 mm 0.00 in0.0 mm 0.00 in0.0 mm
08:40 PM 62.2°F16.8°C 59.5°F15.3°C 91% 0.9 mph NW1.4 kmh NW 2.9 mph4.7 kmh 30.14 in1020.7 mb 0.00 in0.0 mm 0.00 in0.0 mm 0.00 in0.0 mm
08:50 PM 62.4°F16.9°C 60.1°F15.6°C 92% 0.9 mph NW1.4 kmh NW 2.9 mph4.7 kmh 30.14 in1020.7 mb 0.00 in0.0 mm 0.00 in0.0 mm 0.00 in0.0 mm
09:00 PM 62.4°F16.9°C 60.1°F15.6°C 92% 0.9 mph NW1.4 kmh NW 2.9 mph4.7 kmh 30.14 in1020.7 mb 0.00 in0.0 mm 0.00 in0.0 mm 0.00 in0.0 mm
09:10 PM 62.4°F16.9°C 60.1°F15.6°C 92% 0.9 mph WNW1.4 kmh WNW 2.9 mph4.7 kmh 30.14 in1020.7 mb 0.00 in0.0 mm 0.00 in0.0 mm 0.00 in0.0 mm
09:20 PM 62.2°F16.8°C 59.9°F15.5°C 92% 0.9 mph WNW1.4 kmh WNW 2.0 mph3.2 kmh 30.14 in1020.7 mb 0.00 in0.0 mm 0.00 in0.0 mm 0.00 in0.0 mm
09:30 PM 61.9°F16.6°C 59.5°F15.3°C 92% 2.0 mph WNW3.2 kmh WNW 2.9 mph4.7 kmh 30.13 in1020.3 mb 0.00 in0.0 mm 0.00 in0.0 mm 0.00 in0.0 mm
09:40 PM 61.5°F16.4°C 59.2°F15.1°C 92% 0.9 mph WNW1.4 kmh WNW 2.9 mph4.7 kmh 30.14 in1020.7 mb 0.00 in0.0 mm 0.00 in0.0 mm 0.00 in0.0 mm
09:50 PM 61.2°F16.2°C 58.8°F14.9°C 92% Calm Calm 2.0 mph3.2 kmh 30.13 in1020.3 mb 0.00 in0.0 mm 0.00 in0.0 mm 0.00 in0.0 mm
10:00 PM 61.3°F16.3°C 59.0°F15.0°C 92% Calm Calm 2.9 mph4.7 kmh 30.13 in1020.3 mb 0.00 in0.0 mm 0.00 in0.0 mm 0.00 in0.0 mm
10:10 PM 61.5°F16.4°C 59.5°F15.3°C 93% 2.9 mph NW4.7 kmh NW 4.0 mph6.4 kmh 30.13 in1020.3 mb 0.00 in0.0 mm 0.00 in0.0 mm 0.00 in0.0 mm
10:21 PM 61.5°F16.4°C 59.5°F15.3°C 93% 2.0 mph W3.2 kmh W 4.0 mph6.4 kmh 30.14 in1020.7 mb 0.00 in0.0 mm 0.00 in0.0 mm 0.00 in0.0 mm
10:31 PM 61.5°F16.4°C 59.5°F15.3°C 93% 2.0 mph W3.2 kmh W 2.9 mph4.7 kmh 30.13 in1020.3 mb 0.00 in0.0 mm 0.00 in0.0 mm 0.00 in0.0 mm
10:41 PM 61.3°F16.3°C 59.4°F15.2°C 93% 0.9 mph W1.4 kmh W 2.9 mph4.7 kmh 30.13 in1020.3 mb 0.00 in0.0 mm 0.00 in0.0 mm 0.00 in0.0 mm
10:51 PM 61.3°F16.3°C 59.4°F15.2°C 93% 2.0 mph W3.2 kmh W 2.9 mph4.7 kmh 30.13 in1020.3 mb 0.00 in0.0 mm 0.00 in0.0 mm 0.00 in0.0 mm
11:01 PM 61.2°F16.2°C 59.2°F15.1°C 93% 0.9 mph WNW1.4 kmh WNW 2.9 mph4.7 kmh 30.13 in1020.3 mb 0.00 in0.0 mm 0.00 in0.0 mm 0.00 in0.0 mm
11:11 PM 61.2°F16.2°C 59.2°F15.1°C 93% 0.9 mph WNW1.4 kmh WNW 2.0 mph3.2 kmh 30.12 in1020.0 mb 0.00 in0.0 mm 0.00 in0.0 mm 0.00 in0.0 mm
11:21 PM 61.2°F16.2°C 59.2°F15.1°C 93% Calm Calm 2.0 mph3.2 kmh 30.12 in1020.0 mb 0.00 in0.0 mm 0.00 in0.0 mm 0.00 in0.0 mm
11:31 PM 61.0°F16.1°C 59.0°F15.0°C 93% Calm Calm 2.9 mph4.7 kmh 30.12 in1020.0 mb 0.00 in0.0 mm 0.00 in0.0 mm 0.00 in0.0 mm
11:41 PM 61.0°F16.1°C 59.0°F15.0°C 93% 0.9 mph WNW1.4 kmh WNW 2.9 mph4.7 kmh 30.11 in1019.6 mb 0.00 in0.0 mm 0.00 in0.0 mm 0.00 in0.0 mm
11:51 PM 61.0°F16.1°C 59.0°F15.0°C 93% 0.9 mph WNW1.4 kmh WNW 2.9 mph4.7 kmh 30.11 in1019.6 mb 0.00 in0.0 mm 0.00 in0.0 mm 0.00 in0.0 mm